sensor_id;sensor_type;location;lat;lon;timestamp;P1;durP1;ratioP1;P2;durP2;ratioP2
65018;SDS011;66069;51.164;-114.452;2023-07-20T00:01:24;6.95;;;4.60;;
65018;SDS011;66069;51.164;-114.452;2023-07-20T00:03:50;7.50;;;4.90;;
65018;SDS011;66069;51.164;-114.452;2023-07-20T00:06:20;8.13;;;4.70;;
65018;SDS011;66069;51.164;-114.452;2023-07-20T00:08:46;7.35;;;4.82;;
65018;SDS011;66069;51.164;-114.452;2023-07-20T00:11:12;6.47;;;4.32;;
65018;SDS011;66069;51.164;-114.452;2023-07-20T00:13:39;7.15;;;4.65;;
65018;SDS011;66069;51.164;-114.452;2023-07-20T00:16:05;7.38;;;4.80;;
65018;SDS011;66069;51.164;-114.452;2023-07-20T00:18:31;7.20;;;5.05;;
65018;SDS011;66069;51.164;-114.452;2023-07-20T00:20:57;7.88;;;4.70;;
65018;SDS011;66069;51.164;-114.452;2023-07-20T00:23:25;7.18;;;4.57;;
65018;SDS011;66069;51.164;-114.452;2023-07-20T00:25:51;8.32;;;5.05;;
65018;SDS011;66069;51.164;-114.452;2023-07-20T00:28:17;7.70;;;5.05;;
65018;SDS011;66069;51.164;-114.452;2023-07-20T00:30:43;7.88;;;5.32;;
65018;SDS011;66069;51.164;-114.452;2023-07-20T00:33:10;8.07;;;5.10;;
65018;SDS011;66069;51.164;-114.452;2023-07-20T00:35:36;6.70;;;4.72;;
65018;SDS011;66069;51.164;-114.452;2023-07-20T00:38:03;7.53;;;4.82;;
65018;SDS011;66069;51.164;-114.452;2023-07-20T00:40:35;7.32;;;4.68;;
65018;SDS011;66069;51.164;-114.452;2023-07-20T00:43:01;6.80;;;4.85;;
65018;SDS011;66069;51.164;-114.452;2023-07-20T00:45:27;8.68;;;5.25;;
65018;SDS011;66069;51.164;-114.452;2023-07-20T00:47:53;7.32;;;5.05;;
65018;SDS011;66069;51.164;-114.452;2023-07-20T00:50:21;7.97;;;5.50;;
65018;SDS011;66069;51.164;-114.452;2023-07-20T00:52:47;8.38;;;5.75;;
65018;SDS011;66069;51.164;-114.452;2023-07-20T00:55:14;7.82;;;4.80;;
65018;SDS011;66069;51.164;-114.452;2023-07-20T00:57:40;8.23;;;5.38;;
65018;SDS011;66069;51.164;-114.452;2023-07-20T01:00:06;7.47;;;5.50;;
65018;SDS011;66069;51.164;-114.452;2023-07-20T01:02:32;7.70;;;5.05;;
65018;SDS011;66069;51.164;-114.452;2023-07-20T01:04:58;7.78;;;5.40;;
65018;SDS011;66069;51.164;-114.452;2023-07-20T01:07:31;6.85;;;4.93;;
65018;SDS011;66069;51.164;-114.452;2023-07-20T01:10:10;7.55;;;4.85;;
65018;SDS011;66069;51.164;-114.452;2023-07-20T01:12:40;7.45;;;5.28;;
65018;SDS011;66069;51.164;-114.452;2023-07-20T01:15:07;7.85;;;5.07;;
65018;SDS011;66069;51.164;-114.452;2023-07-20T01:17:33;7.53;;;5.18;;
65018;SDS011;66069;51.164;-114.452;2023-07-20T01:19:59;7.28;;;4.88;;
65018;SDS011;66069;51.164;-114.452;2023-07-20T01:25:31;8.38;;;5.50;;
65018;SDS011;66069;51.164;-114.452;2023-07-20T01:33:08;6.45;;;4.38;;
65018;SDS011;66069;51.164;-114.452;2023-07-20T01:35:34;8.40;;;5.53;;
65018;SDS011;66069;51.164;-114.452;2023-07-20T01:38:02;7.40;;;5.15;;
65018;SDS011;66069;51.164;-114.452;2023-07-20T01:40:28;7.00;;;5.07;;
65018;SDS011;66069;51.164;-114.452;2023-07-20T01:42:54;6.90;;;5.05;;
65018;SDS011;66069;51.164;-114.452;2023-07-20T01:45:20;6.97;;;4.78;;
65018;SDS011;66069;51.164;-114.452;2023-07-20T01:47:47;7.25;;;4.68;;
65018;SDS011;66069;51.164;-114.452;2023-07-20T01:50:15;8.05;;;5.22;;
65018;SDS011;66069;51.164;-114.452;2023-07-20T01:52:41;7.18;;;4.93;;
65018;SDS011;66069;51.164;-114.452;2023-07-20T01:55:07;7.25;;;4.80;;
65018;SDS011;66069;51.164;-114.452;2023-07-20T01:57:33;7.82;;;5.55;;
65018;SDS011;66069;51.164;-114.452;2023-07-20T01:59:59;7.75;;;5.25;;
65018;SDS011;66069;51.164;-114.452;2023-07-20T02:02:28;7.32;;;5.00;;
65018;SDS011;66069;51.164;-114.452;2023-07-20T02:04:54;8.73;;;5.55;;
65018;SDS011;66069;51.164;-114.452;2023-07-20T02:07:20;7.50;;;5.28;;
65018;SDS011;66069;51.164;-114.452;2023-07-20T02:09:47;7.15;;;4.88;;
65018;SDS011;66069;51.164;-114.452;2023-07-20T02:12:15;7.30;;;5.13;;
65018;SDS011;66069;51.164;-114.452;2023-07-20T02:14:41;7.88;;;5.43;;
65018;SDS011;66069;51.164;-114.452;2023-07-20T02:17:07;8.15;;;5.07;;
65018;SDS011;66069;51.164;-114.452;2023-07-20T02:19:36;7.40;;;4.95;;
65018;SDS011;66069;51.164;-114.452;2023-07-20T02:22:03;6.78;;;4.70;;
65018;SDS011;66069;51.164;-114.452;2023-07-20T02:24:28;7.18;;;5.38;;
65018;SDS011;66069;51.164;-114.452;2023-07-20T02:26:55;8.10;;;5.20;;
65018;SDS011;66069;51.164;-114.452;2023-07-20T02:29:20;8.18;;;5.60;;
65018;SDS011;66069;51.164;-114.452;2023-07-20T02:31:46;7.93;;;5.32;;
65018;SDS011;66069;51.164;-114.452;2023-07-20T02:34:12;7.10;;;5.22;;
65018;SDS011;66069;51.164;-114.452;2023-07-20T02:36:38;8.50;;;5.13;;
65018;SDS011;66069;51.164;-114.452;2023-07-20T02:39:05;7.85;;;5.38;;
65018;SDS011;66069;51.164;-114.452;2023-07-20T02:41:32;7.85;;;4.97;;
65018;SDS011;66069;51.164;-114.452;2023-07-20T02:43:58;8.13;;;5.05;;
65018;SDS011;66069;51.164;-114.452;2023-07-20T02:46:24;7.07;;;5.13;;
65018;SDS011;66069;51.164;-114.452;2023-07-20T02:48:50;7.88;;;5.30;;
65018;SDS011;66069;51.164;-114.452;2023-07-20T02:51:16;7.78;;;5.28;;
65018;SDS011;66069;51.164;-114.452;2023-07-20T02:53:42;8.07;;;5.25;;
65018;SDS011;66069;51.164;-114.452;2023-07-20T02:56:08;6.78;;;4.72;;
65018;SDS011;66069;51.164;-114.452;2023-07-20T02:58:34;7.22;;;5.35;;
65018;SDS011;66069;51.164;-114.452;2023-07-20T03:01:04;8.00;;;5.60;;
65018;SDS011;66069;51.164;-114.452;2023-07-20T03:03:29;6.78;;;4.88;;
65018;SDS011;66069;51.164;-114.452;2023-07-20T03:05:58;7.78;;;4.72;;
65018;SDS011;66069;51.164;-114.452;2023-07-20T03:08:24;7.63;;;5.22;;
65018;SDS011;66069;51.164;-114.452;2023-07-20T03:10:50;7.30;;;5.05;;
65018;SDS011;66069;51.164;-114.452;2023-07-20T03:13:16;7.45;;;5.20;;
65018;SDS011;66069;51.164;-114.452;2023-07-20T03:15:42;7.30;;;4.85;;
65018;SDS011;66069;51.164;-114.452;2023-07-20T03:18:08;7.97;;;5.15;;
65018;SDS011;66069;51.164;-114.452;2023-07-20T03:20:35;7.43;;;4.85;;
65018;SDS011;66069;51.164;-114.452;2023-07-20T03:23:01;7.38;;;5.30;;
65018;SDS011;66069;51.164;-114.452;2023-07-20T03:25:27;7.47;;;4.72;;
65018;SDS011;66069;51.164;-114.452;2023-07-20T03:27:53;7.28;;;4.88;;
65018;SDS011;66069;51.164;-114.452;2023-07-20T03:30:19;7.38;;;4.93;;
65018;SDS011;66069;51.164;-114.452;2023-07-20T03:32:45;7.78;;;4.88;;
65018;SDS011;66069;51.164;-114.452;2023-07-20T03:35:11;7.25;;;5.20;;
65018;SDS011;66069;51.164;-114.452;2023-07-20T03:37:37;8.20;;;5.22;;
65018;SDS011;66069;51.164;-114.452;2023-07-20T03:40:03;7.45;;;4.82;;
65018;SDS011;66069;51.164;-114.452;2023-07-20T03:42:30;7.50;;;4.90;;
65018;SDS011;66069;51.164;-114.452;2023-07-20T03:44:56;6.65;;;4.75;;
65018;SDS011;66069;51.164;-114.452;2023-07-20T03:47:22;7.50;;;5.30;;
65018;SDS011;66069;51.164;-114.452;2023-07-20T03:49:48;7.85;;;5.50;;
65018;SDS011;66069;51.164;-114.452;2023-07-20T03:52:13;6.88;;;4.63;;
65018;SDS011;66069;51.164;-114.452;2023-07-20T03:54:39;7.53;;;5.15;;
65018;SDS011;66069;51.164;-114.452;2023-07-20T03:57:05;7.18;;;4.90;;
65018;SDS011;66069;51.164;-114.452;2023-07-20T03:59:31;7.25;;;5.10;;
65018;SDS011;66069;51.164;-114.452;2023-07-20T04:01:58;7.07;;;5.35;;
65018;SDS011;66069;51.164;-114.452;2023-07-20T04:04:24;7.40;;;4.50;;
65018;SDS011;66069;51.164;-114.452;2023-07-20T04:06:50;7.65;;;4.80;;
65018;SDS011;66069;51.164;-114.452;2023-07-20T04:09:16;7.78;;;5.25;;
65018;SDS011;66069;51.164;-114.452;2023-07-20T04:11:42;7.00;;;4.85;;
65018;SDS011;66069;51.164;-114.452;2023-07-20T04:14:08;7.53;;;5.30;;
65018;SDS011;66069;51.164;-114.452;2023-07-20T04:16:34;7.07;;;5.05;;
65018;SDS011;66069;51.164;-114.452;2023-07-20T04:19:02;6.82;;;4.88;;
65018;SDS011;66069;51.164;-114.452;2023-07-20T04:21:31;7.47;;;4.85;;
65018;SDS011;66069;51.164;-114.452;2023-07-20T04:23:57;7.40;;;5.32;;
65018;SDS011;66069;51.164;-114.452;2023-07-20T04:26:23;7.55;;;4.90;;
65018;SDS011;66069;51.164;-114.452;2023-07-20T04:28:52;6.65;;;4.57;;
65018;SDS011;66069;51.164;-114.452;2023-07-20T04:31:18;7.03;;;5.10;;
65018;SDS011;66069;51.164;-114.452;2023-07-20T04:33:44;6.60;;;4.88;;
65018;SDS011;66069;51.164;-114.452;2023-07-20T04:36:10;6.90;;;4.82;;
65018;SDS011;66069;51.164;-114.452;2023-07-20T04:38:36;6.65;;;4.90;;
65018;SDS011;66069;51.164;-114.452;2023-07-20T04:41:01;7.13;;;4.68;;
65018;SDS011;66069;51.164;-114.452;2023-07-20T04:43:28;7.15;;;5.13;;
65018;SDS011;66069;51.164;-114.452;2023-07-20T04:45:54;6.90;;;4.50;;
65018;SDS011;66069;51.164;-114.452;2023-07-20T04:48:20;6.90;;;4.85;;
65018;SDS011;66069;51.164;-114.452;2023-07-20T04:50:46;6.80;;;5.00;;
65018;SDS011;66069;51.164;-114.452;2023-07-20T04:53:12;6.78;;;4.60;;
65018;SDS011;66069;51.164;-114.452;2023-07-20T04:55:39;6.40;;;4.63;;
65018;SDS011;66069;51.164;-114.452;2023-07-20T04:58:05;6.88;;;4.70;;
65018;SDS011;66069;51.164;-114.452;2023-07-20T05:00:35;7.18;;;4.53;;
65018;SDS011;66069;51.164;-114.452;2023-07-20T05:03:04;6.35;;;4.47;;
65018;SDS011;66069;51.164;-114.452;2023-07-20T05:05:30;7.63;;;5.20;;
65018;SDS011;66069;51.164;-114.452;2023-07-20T05:07:57;6.78;;;4.80;;
65018;SDS011;66069;51.164;-114.452;2023-07-20T05:10:23;7.07;;;4.57;;
65018;SDS011;66069;51.164;-114.452;2023-07-20T05:12:49;7.10;;;4.85;;
65018;SDS011;66069;51.164;-114.452;2023-07-20T05:15:15;6.50;;;4.70;;
65018;SDS011;66069;51.164;-114.452;2023-07-20T05:17:41;5.93;;;4.10;;
65018;SDS011;66069;51.164;-114.452;2023-07-20T05:20:07;6.43;;;4.63;;
65018;SDS011;66069;51.164;-114.452;2023-07-20T05:22:36;6.43;;;4.60;;
65018;SDS011;66069;51.164;-114.452;2023-07-20T05:25:07;6.85;;;4.63;;
65018;SDS011;66069;51.164;-114.452;2023-07-20T05:27:35;7.43;;;4.45;;
65018;SDS011;66069;51.164;-114.452;2023-07-20T05:30:01;6.38;;;4.55;;
65018;SDS011;66069;51.164;-114.452;2023-07-20T05:32:28;7.43;;;4.78;;
65018;SDS011;66069;51.164;-114.452;2023-07-20T05:34:54;7.13;;;4.85;;
65018;SDS011;66069;51.164;-114.452;2023-07-20T05:37:20;7.63;;;4.57;;
65018;SDS011;66069;51.164;-114.452;2023-07-20T05:39:46;6.82;;;4.50;;
65018;SDS011;66069;51.164;-114.452;2023-07-20T05:42:12;6.47;;;4.80;;
65018;SDS011;66069;51.164;-114.452;2023-07-20T05:44:38;7.72;;;4.60;;
65018;SDS011;66069;51.164;-114.452;2023-07-20T05:47:04;7.18;;;4.90;;
65018;SDS011;66069;51.164;-114.452;2023-07-20T05:49:30;7.07;;;4.72;;
65018;SDS011;66069;51.164;-114.452;2023-07-20T05:51:56;5.85;;;4.45;;
65018;SDS011;66069;51.164;-114.452;2023-07-20T05:54:23;6.85;;;4.57;;
65018;SDS011;66069;51.164;-114.452;2023-07-20T05:56:49;7.28;;;4.90;;
65018;SDS011;66069;51.164;-114.452;2023-07-20T05:59:15;6.20;;;4.43;;
65018;SDS011;66069;51.164;-114.452;2023-07-20T06:01:41;6.30;;;4.68;;
65018;SDS011;66069;51.164;-114.452;2023-07-20T06:04:07;7.35;;;4.65;;
65018;SDS011;66069;51.164;-114.452;2023-07-20T06:06:33;6.95;;;4.65;;
65018;SDS011;66069;51.164;-114.452;2023-07-20T06:08:59;6.53;;;4.30;;
65018;SDS011;66069;51.164;-114.452;2023-07-20T06:11:29;6.70;;;4.53;;
65018;SDS011;66069;51.164;-114.452;2023-07-20T06:13:56;7.05;;;4.90;;
65018;SDS011;66069;51.164;-114.452;2023-07-20T06:16:22;6.10;;;4.38;;
65018;SDS011;66069;51.164;-114.452;2023-07-20T06:18:48;5.97;;;3.92;;
65018;SDS011;66069;51.164;-114.452;2023-07-20T06:21:14;6.90;;;4.90;;
65018;SDS011;66069;51.164;-114.452;2023-07-20T06:23:40;7.05;;;4.85;;
65018;SDS011;66069;51.164;-114.452;2023-07-20T06:26:06;5.90;;;4.25;;
65018;SDS011;66069;51.164;-114.452;2023-07-20T06:28:33;6.15;;;4.55;;
65018;SDS011;66069;51.164;-114.452;2023-07-20T06:30:59;7.57;;;4.85;;
65018;SDS011;66069;51.164;-114.452;2023-07-20T06:33:26;6.40;;;4.70;;
65018;SDS011;66069;51.164;-114.452;2023-07-20T06:35:51;7.45;;;4.72;;
65018;SDS011;66069;51.164;-114.452;2023-07-20T06:38:18;7.40;;;5.43;;
65018;SDS011;66069;51.164;-114.452;2023-07-20T06:40:47;6.70;;;4.30;;
65018;SDS011;66069;51.164;-114.452;2023-07-20T06:43:13;6.57;;;4.45;;
65018;SDS011;66069;51.164;-114.452;2023-07-20T06:45:39;6.15;;;4.47;;
65018;SDS011;66069;51.164;-114.452;2023-07-20T06:48:05;6.47;;;4.70;;
65018;SDS011;66069;51.164;-114.452;2023-07-20T06:50:31;7.28;;;4.85;;
65018;SDS011;66069;51.164;-114.452;2023-07-20T06:52:57;6.60;;;4.75;;
65018;SDS011;66069;51.164;-114.452;2023-07-20T06:55:24;6.65;;;5.03;;
65018;SDS011;66069;51.164;-114.452;2023-07-20T06:57:50;7.35;;;4.57;;
65018;SDS011;66069;51.164;-114.452;2023-07-20T07:00:16;7.00;;;4.72;;
65018;SDS011;66069;51.164;-114.452;2023-07-20T07:02:42;6.05;;;4.47;;
65018;SDS011;66069;51.164;-114.452;2023-07-20T07:05:08;6.22;;;4.30;;
65018;SDS011;66069;51.164;-114.452;2023-07-20T07:07:34;6.00;;;4.50;;
65018;SDS011;66069;51.164;-114.452;2023-07-20T07:10:01;6.50;;;4.45;;
65018;SDS011;66069;51.164;-114.452;2023-07-20T07:12:30;6.55;;;4.68;;
65018;SDS011;66069;51.164;-114.452;2023-07-20T07:14:56;6.70;;;4.22;;
65018;SDS011;66069;51.164;-114.452;2023-07-20T07:17:22;6.45;;;4.47;;
65018;SDS011;66069;51.164;-114.452;2023-07-20T07:19:48;6.30;;;3.88;;
65018;SDS011;66069;51.164;-114.452;2023-07-20T07:22:14;6.28;;;4.00;;
65018;SDS011;66069;51.164;-114.452;2023-07-20T07:24:40;5.93;;;4.18;;
65018;SDS011;66069;51.164;-114.452;2023-07-20T07:27:08;6.63;;;4.35;;
65018;SDS011;66069;51.164;-114.452;2023-07-20T07:29:34;5.93;;;4.22;;
65018;SDS011;66069;51.164;-114.452;2023-07-20T07:32:00;6.28;;;4.13;;
65018;SDS011;66069;51.164;-114.452;2023-07-20T07:34:27;6.50;;;4.22;;
65018;SDS011;66069;51.164;-114.452;2023-07-20T07:36:53;7.20;;;4.78;;
65018;SDS011;66069;51.164;-114.452;2023-07-20T07:39:19;7.00;;;4.47;;
65018;SDS011;66069;51.164;-114.452;2023-07-20T07:41:45;6.68;;;4.60;;
65018;SDS011;66069;51.164;-114.452;2023-07-20T07:44:11;6.60;;;4.22;;
65018;SDS011;66069;51.164;-114.452;2023-07-20T07:46:37;6.13;;;4.38;;
65018;SDS011;66069;51.164;-114.452;2023-07-20T07:49:03;6.50;;;4.30;;
65018;SDS011;66069;51.164;-114.452;2023-07-20T07:51:29;5.88;;;4.32;;
65018;SDS011;66069;51.164;-114.452;2023-07-20T07:53:55;6.40;;;4.43;;
65018;SDS011;66069;51.164;-114.452;2023-07-20T07:56:21;6.93;;;4.60;;
65018;SDS011;66069;51.164;-114.452;2023-07-20T07:58:48;6.10;;;4.32;;
65018;SDS011;66069;51.164;-114.452;2023-07-20T08:01:14;6.20;;;4.32;;
65018;SDS011;66069;51.164;-114.452;2023-07-20T08:03:40;7.10;;;4.47;;
65018;SDS011;66069;51.164;-114.452;2023-07-20T08:06:06;6.15;;;4.53;;
65018;SDS011;66069;51.164;-114.452;2023-07-20T08:08:32;5.72;;;3.85;;
65018;SDS011;66069;51.164;-114.452;2023-07-20T08:10:59;6.10;;;4.13;;
65018;SDS011;66069;51.164;-114.452;2023-07-20T08:13:25;6.50;;;4.72;;
65018;SDS011;66069;51.164;-114.452;2023-07-20T08:15:54;7.05;;;4.68;;
65018;SDS011;66069;51.164;-114.452;2023-07-20T08:18:20;5.18;;;3.85;;
65018;SDS011;66069;51.164;-114.452;2023-07-20T08:20:46;5.80;;;4.03;;
65018;SDS011;66069;51.164;-114.452;2023-07-20T08:23:13;6.40;;;4.63;;
65018;SDS011;66069;51.164;-114.452;2023-07-20T08:25:39;6.35;;;4.00;;
65018;SDS011;66069;51.164;-114.452;2023-07-20T08:28:09;7.45;;;4.72;;
65018;SDS011;66069;51.164;-114.452;2023-07-20T08:30:39;6.13;;;4.10;;
65018;SDS011;66069;51.164;-114.452;2023-07-20T08:33:06;6.03;;;4.22;;
65018;SDS011;66069;51.164;-114.452;2023-07-20T08:35:32;5.93;;;4.13;;
65018;SDS011;66069;51.164;-114.452;2023-07-20T08:37:57;6.25;;;4.35;;
65018;SDS011;66069;51.164;-114.452;2023-07-20T08:40:23;6.28;;;4.32;;
65018;SDS011;66069;51.164;-114.452;2023-07-20T08:42:50;6.50;;;4.22;;
65018;SDS011;66069;51.164;-114.452;2023-07-20T08:45:16;6.63;;;4.45;;
65018;SDS011;66069;51.164;-114.452;2023-07-20T08:47:42;6.53;;;4.30;;
65018;SDS011;66069;51.164;-114.452;2023-07-20T08:50:09;6.13;;;4.03;;
65018;SDS011;66069;51.164;-114.452;2023-07-20T08:52:36;6.95;;;4.28;;
65018;SDS011;66069;51.164;-114.452;2023-07-20T08:55:02;6.65;;;4.28;;
65018;SDS011;66069;51.164;-114.452;2023-07-20T08:57:30;7.03;;;4.43;;
65018;SDS011;66069;51.164;-114.452;2023-07-20T08:59:58;6.55;;;4.43;;
65018;SDS011;66069;51.164;-114.452;2023-07-20T09:02:25;6.60;;;4.30;;
65018;SDS011;66069;51.164;-114.452;2023-07-20T09:04:52;7.00;;;4.25;;
65018;SDS011;66069;51.164;-114.452;2023-07-20T09:07:18;6.45;;;4.53;;
65018;SDS011;66069;51.164;-114.452;2023-07-20T09:09:45;6.10;;;4.53;;
65018;SDS011;66069;51.164;-114.452;2023-07-20T09:12:14;5.88;;;4.05;;
65018;SDS011;66069;51.164;-114.452;2023-07-20T09:14:44;5.97;;;4.13;;
65018;SDS011;66069;51.164;-114.452;2023-07-20T09:17:12;5.90;;;4.32;;
65018;SDS011;66069;51.164;-114.452;2023-07-20T09:19:38;5.47;;;3.83;;
65018;SDS011;66069;51.164;-114.452;2023-07-20T09:22:04;6.63;;;4.10;;
65018;SDS011;66069;51.164;-114.452;2023-07-20T09:24:31;6.32;;;4.05;;
65018;SDS011;66069;51.164;-114.452;2023-07-20T09:26:57;6.53;;;3.97;;
65018;SDS011;66069;51.164;-114.452;2023-07-20T09:29:29;5.88;;;4.50;;
65018;SDS011;66069;51.164;-114.452;2023-07-20T09:31:59;6.15;;;4.38;;
65018;SDS011;66069;51.164;-114.452;2023-07-20T09:34:27;5.85;;;3.97;;
65018;SDS011;66069;51.164;-114.452;2023-07-20T09:36:54;6.03;;;3.75;;
65018;SDS011;66069;51.164;-114.452;2023-07-20T09:39:20;5.15;;;3.75;;
65018;SDS011;66069;51.164;-114.452;2023-07-20T09:41:45;6.55;;;4.75;;
65018;SDS011;66069;51.164;-114.452;2023-07-20T09:44:13;5.80;;;4.10;;
65018;SDS011;66069;51.164;-114.452;2023-07-20T09:46:44;6.55;;;4.20;;
65018;SDS011;66069;51.164;-114.452;2023-07-20T09:49:10;5.60;;;3.85;;
65018;SDS011;66069;51.164;-114.452;2023-07-20T09:51:36;6.15;;;4.00;;
65018;SDS011;66069;51.164;-114.452;2023-07-20T09:54:02;6.45;;;4.13;;
65018;SDS011;66069;51.164;-114.452;2023-07-20T09:56:29;5.88;;;4.07;;
65018;SDS011;66069;51.164;-114.452;2023-07-20T09:58:56;6.55;;;4.65;;
65018;SDS011;66069;51.164;-114.452;2023-07-20T10:01:22;6.18;;;4.05;;
65018;SDS011;66069;51.164;-114.452;2023-07-20T10:03:49;6.72;;;4.43;;
65018;SDS011;66069;51.164;-114.452;2023-07-20T10:06:23;6.57;;;4.30;;
65018;SDS011;66069;51.164;-114.452;2023-07-20T10:08:52;6.00;;;4.30;;
65018;SDS011;66069;51.164;-114.452;2023-07-20T10:11:18;5.68;;;3.88;;
65018;SDS011;66069;51.164;-114.452;2023-07-20T10:13:45;5.80;;;3.83;;
65018;SDS011;66069;51.164;-114.452;2023-07-20T10:16:16;5.90;;;4.20;;
65018;SDS011;66069;51.164;-114.452;2023-07-20T10:19:07;6.68;;;4.10;;
65018;SDS011;66069;51.164;-114.452;2023-07-20T10:21:31;5.90;;;4.10;;
65018;SDS011;66069;51.164;-114.452;2023-07-20T10:23:59;6.40;;;4.53;;
65018;SDS011;66069;51.164;-114.452;2023-07-20T10:26:25;5.93;;;4.00;;
65018;SDS011;66069;51.164;-114.452;2023-07-20T10:28:51;5.70;;;3.97;;
65018;SDS011;66069;51.164;-114.452;2023-07-20T10:31:18;5.72;;;4.10;;
65018;SDS011;66069;51.164;-114.452;2023-07-20T10:33:44;6.28;;;4.25;;
65018;SDS011;66069;51.164;-114.452;2023-07-20T10:36:10;6.65;;;4.60;;
65018;SDS011;66069;51.164;-114.452;2023-07-20T10:41:19;6.22;;;4.43;;
65018;SDS011;66069;51.164;-114.452;2023-07-20T10:43:46;6.20;;;4.20;;
65018;SDS011;66069;51.164;-114.452;2023-07-20T10:46:12;5.85;;;4.22;;
65018;SDS011;66069;51.164;-114.452;2023-07-20T10:51:22;6.72;;;4.32;;
65018;SDS011;66069;51.164;-114.452;2023-07-20T10:53:49;6.05;;;3.95;;
65018;SDS011;66069;51.164;-114.452;2023-07-20T10:56:19;5.32;;;3.70;;
65018;SDS011;66069;51.164;-114.452;2023-07-20T10:58:45;6.00;;;4.40;;
65018;SDS011;66069;51.164;-114.452;2023-07-20T11:01:14;5.57;;;3.70;;
65018;SDS011;66069;51.164;-114.452;2023-07-20T11:03:41;5.53;;;4.03;;
65018;SDS011;66069;51.164;-114.452;2023-07-20T11:14:08;5.97;;;4.28;;
65018;SDS011;66069;51.164;-114.452;2023-07-20T11:19:00;5.20;;;3.80;;
65018;SDS011;66069;51.164;-114.452;2023-07-20T11:21:26;6.15;;;4.15;;
65018;SDS011;66069;51.164;-114.452;2023-07-20T11:23:52;5.15;;;3.72;;
65018;SDS011;66069;51.164;-114.452;2023-07-20T11:26:21;5.70;;;4.15;;
65018;SDS011;66069;51.164;-114.452;2023-07-20T11:28:50;6.57;;;3.92;;
65018;SDS011;66069;51.164;-114.452;2023-07-20T11:31:20;5.63;;;3.78;;
65018;SDS011;66069;51.164;-114.452;2023-07-20T11:33:46;5.72;;;3.80;;
65018;SDS011;66069;51.164;-114.452;2023-07-20T11:36:12;5.85;;;4.07;;
65018;SDS011;66069;51.164;-114.452;2023-07-20T11:38:40;5.97;;;4.30;;
65018;SDS011;66069;51.164;-114.452;2023-07-20T11:41:07;6.25;;;4.05;;
65018;SDS011;66069;51.164;-114.452;2023-07-20T11:43:33;5.68;;;3.90;;
65018;SDS011;66069;51.164;-114.452;2023-07-20T11:45:59;5.93;;;3.92;;
65018;SDS011;66069;51.164;-114.452;2023-07-20T11:48:26;5.43;;;4.00;;
65018;SDS011;66069;51.164;-114.452;2023-07-20T11:50:52;5.18;;;3.53;;
65018;SDS011;66069;51.164;-114.452;2023-07-20T11:53:17;5.55;;;3.60;;
65018;SDS011;66069;51.164;-114.452;2023-07-20T11:55:44;5.53;;;4.00;;
65018;SDS011;66069;51.164;-114.452;2023-07-20T11:58:10;6.20;;;4.05;;
65018;SDS011;66069;51.164;-114.452;2023-07-20T12:00:38;6.05;;;3.90;;
65018;SDS011;66069;51.164;-114.452;2023-07-20T12:03:05;6.57;;;4.40;;
65018;SDS011;66069;51.164;-114.452;2023-07-20T12:05:35;5.72;;;4.15;;
65018;SDS011;66069;51.164;-114.452;2023-07-20T12:08:02;6.03;;;4.03;;
65018;SDS011;66069;51.164;-114.452;2023-07-20T12:10:28;5.60;;;3.63;;
65018;SDS011;66069;51.164;-114.452;2023-07-20T12:13:00;6.55;;;4.35;;
65018;SDS011;66069;51.164;-114.452;2023-07-20T12:15:26;5.97;;;3.95;;
65018;SDS011;66069;51.164;-114.452;2023-07-20T12:17:55;5.32;;;4.10;;
65018;SDS011;66069;51.164;-114.452;2023-07-20T12:20:34;5.53;;;3.97;;
65018;SDS011;66069;51.164;-114.452;2023-07-20T12:23:05;6.60;;;4.40;;
65018;SDS011;66069;51.164;-114.452;2023-07-20T12:25:36;5.82;;;3.78;;
65018;SDS011;66069;51.164;-114.452;2023-07-20T12:28:04;6.05;;;4.57;;
65018;SDS011;66069;51.164;-114.452;2023-07-20T12:30:30;5.82;;;4.07;;
65018;SDS011;66069;51.164;-114.452;2023-07-20T12:32:56;6.18;;;4.00;;
65018;SDS011;66069;51.164;-114.452;2023-07-20T12:35:22;6.00;;;3.72;;
65018;SDS011;66069;51.164;-114.452;2023-07-20T12:37:47;5.45;;;3.85;;
65018;SDS011;66069;51.164;-114.452;2023-07-20T12:40:14;6.53;;;4.28;;
65018;SDS011;66069;51.164;-114.452;2023-07-20T12:42:40;6.35;;;4.10;;
65018;SDS011;66069;51.164;-114.452;2023-07-20T12:45:06;5.82;;;3.90;;
65018;SDS011;66069;51.164;-114.452;2023-07-20T12:47:32;6.38;;;3.97;;
65018;SDS011;66069;51.164;-114.452;2023-07-20T12:49:58;6.10;;;4.10;;
65018;SDS011;66069;51.164;-114.452;2023-07-20T12:52:24;6.15;;;4.18;;
65018;SDS011;66069;51.164;-114.452;2023-07-20T12:54:49;5.65;;;3.95;;
65018;SDS011;66069;51.164;-114.452;2023-07-20T12:57:15;6.05;;;4.32;;
65018;SDS011;66069;51.164;-114.452;2023-07-20T12:59:41;6.43;;;3.72;;
65018;SDS011;66069;51.164;-114.452;2023-07-20T13:02:07;6.35;;;4.07;;
65018;SDS011;66069;51.164;-114.452;2023-07-20T13:04:33;6.10;;;3.88;;
65018;SDS011;66069;51.164;-114.452;2023-07-20T13:06:59;6.20;;;4.10;;
65018;SDS011;66069;51.164;-114.452;2023-07-20T13:09:25;5.78;;;3.95;;
65018;SDS011;66069;51.164;-114.452;2023-07-20T13:11:51;6.18;;;4.18;;
65018;SDS011;66069;51.164;-114.452;2023-07-20T13:14:17;6.45;;;4.40;;
65018;SDS011;66069;51.164;-114.452;2023-07-20T13:16:43;6.00;;;4.13;;
65018;SDS011;66069;51.164;-114.452;2023-07-20T13:19:09;6.88;;;4.63;;
65018;SDS011;66069;51.164;-114.452;2023-07-20T13:21:35;4.97;;;3.50;;
65018;SDS011;66069;51.164;-114.452;2023-07-20T13:24:01;6.32;;;4.20;;
65018;SDS011;66069;51.164;-114.452;2023-07-20T13:26:29;5.85;;;4.25;;
65018;SDS011;66069;51.164;-114.452;2023-07-20T13:28:55;6.50;;;4.30;;
65018;SDS011;66069;51.164;-114.452;2023-07-20T13:31:20;5.55;;;3.83;;
65018;SDS011;66069;51.164;-114.452;2023-07-20T13:33:46;5.38;;;3.88;;
65018;SDS011;66069;51.164;-114.452;2023-07-20T13:36:12;5.53;;;3.88;;
65018;SDS011;66069;51.164;-114.452;2023-07-20T13:38:38;6.65;;;4.47;;
65018;SDS011;66069;51.164;-114.452;2023-07-20T13:41:04;5.93;;;3.88;;
65018;SDS011;66069;51.164;-114.452;2023-07-20T13:43:30;6.65;;;3.88;;
65018;SDS011;66069;51.164;-114.452;2023-07-20T13:45:56;6.03;;;3.97;;
65018;SDS011;66069;51.164;-114.452;2023-07-20T13:48:21;5.88;;;3.90;;
65018;SDS011;66069;51.164;-114.452;2023-07-20T13:50:48;6.00;;;4.07;;
65018;SDS011;66069;51.164;-114.452;2023-07-20T13:53:14;5.30;;;3.60;;
65018;SDS011;66069;51.164;-114.452;2023-07-20T13:55:41;6.15;;;3.97;;
65018;SDS011;66069;51.164;-114.452;2023-07-20T13:58:07;6.05;;;4.20;;
65018;SDS011;66069;51.164;-114.452;2023-07-20T14:00:35;5.57;;;3.92;;
65018;SDS011;66069;51.164;-114.452;2023-07-20T14:03:01;5.60;;;3.85;;
65018;SDS011;66069;51.164;-114.452;2023-07-20T14:05:27;5.88;;;3.88;;
65018;SDS011;66069;51.164;-114.452;2023-07-20T14:07:53;5.93;;;3.83;;
65018;SDS011;66069;51.164;-114.452;2023-07-20T14:10:19;5.63;;;4.00;;
65018;SDS011;66069;51.164;-114.452;2023-07-20T14:12:45;6.35;;;4.60;;
65018;SDS011;66069;51.164;-114.452;2023-07-20T14:15:11;6.70;;;4.15;;
65018;SDS011;66069;51.164;-114.452;2023-07-20T14:17:37;6.43;;;4.22;;
65018;SDS011;66069;51.164;-114.452;2023-07-20T14:20:03;5.78;;;3.83;;
65018;SDS011;66069;51.164;-114.452;2023-07-20T14:22:31;5.80;;;4.00;;
65018;SDS011;66069;51.164;-114.452;2023-07-20T14:24:57;6.10;;;4.20;;
65018;SDS011;66069;51.164;-114.452;2023-07-20T14:27:24;6.38;;;4.30;;
65018;SDS011;66069;51.164;-114.452;2023-07-20T14:29:50;5.40;;;3.80;;